Pagrindinis puslapis
METAR-TAF:

METAR-TAF

Oro uostai :

Sundsvalis-Herniosandas, Švedija

platuma: 62-32N, ilguma: 017-27E, Aukštis: 4 m

Dabartinis oras

Ataskaita buvo paskelbta 18 minutes, ne 10:20 UTC
Vėjas 6 kt iš Vakarų/Šiaurės Vakarų
Temperatūra 1°C
Drėgmė 64%
Slėgis 1005 hPa
Matomumas 10 km arba daugiau

METAR: ESNN 251020Z AUTO 29006KT 9999 NCD 01/M05 Q1005

Laikas: 11:38 (10:38 UTC)

Prognozė

Ataskaita buvo paskelbta 17 valandos ir 8 minutes, ne 17:30 UTC
Prognozė galioja nuo 24 metu 18 UTC su 24 metu 22 UTC
Vėjas 8 kt iš Vakarų
Matomumas 10 km arba daugiau
nėra debesų žemiau 1500 m ir nėra kamuolinių lietaus debesų
Tapsmas
nuo 24 metu 19 UTC su 24 metu 21 UTC
Vėjas 15 kt iš Vakarų su gūsio iki 28 kt

TAF: ESNN 241730Z 2418/2422 26008KT CAVOK BECMG 2419/2421 28015G28KT

Orai ataskaitas ir orų prognozės (METAR, TAF).

turimą stotys yra geltonos ir raudonos taškus žemėlapyje.

Perkelti pele per norėdami pamatyti stoties vardą.

Tada spustelėkite, norėdami matyti oro stebėjimo ir prognozės.

Norėdami pakeisti žemėlapį: spustelėkite ant žalios mygtukų su juodo kryžiaus žemyn,; žalią mygtuką su brūkšneliu, jei norite nutolinti; arba žalių rodyklių gretimoms žemėlapius.


METAR-TAF: